sensor_id;sensor_type;location;lat;lon;timestamp;pressure;altitude;pressure_sealevel;temperature;humidity
32789;BME280;19141;48.980;8.410;2023-05-22T04:22:33;99843.72;;;13.45;100.00
32789;BME280;19141;48.980;8.410;2023-05-22T04:24:58;99840.88;;;13.53;100.00
32789;BME280;19141;48.980;8.410;2023-05-22T04:27:24;99836.34;;;13.60;100.00
32789;BME280;19141;48.980;8.410;2023-05-22T04:29:51;99845.19;;;13.61;100.00
32789;BME280;19141;48.980;8.410;2023-05-22T04:32:16;99839.25;;;13.65;100.00
32789;BME280;19141;48.980;8.410;2023-05-22T04:34:45;99837.81;;;13.69;100.00
32789;BME280;19141;48.980;8.410;2023-05-22T04:37:10;99847.91;;;13.74;100.00
32789;BME280;19141;48.980;8.410;2023-05-22T04:39:39;99844.41;;;13.80;100.00
32789;BME280;19141;48.980;8.410;2023-05-22T04:42:05;99839.28;;;13.85;100.00
32789;BME280;19141;48.980;8.410;2023-05-22T04:44:31;99847.31;;;13.92;100.00
32789;BME280;19141;48.980;8.410;2023-05-22T04:47:02;99851.84;;;13.98;100.00
32789;BME280;19141;48.980;8.410;2023-05-22T04:49:32;99850.00;;;14.05;100.00
32789;BME280;19141;48.980;8.410;2023-05-22T04:51:57;99847.31;;;14.11;100.00
32789;BME280;19141;48.980;8.410;2023-05-22T04:54:23;99847.53;;;14.17;100.00
32789;BME280;19141;48.980;8.410;2023-05-22T04:56:49;99848.16;;;14.19;100.00
32789;BME280;19141;48.980;8.410;2023-05-22T04:59:16;99852.88;;;14.30;100.00
32789;BME280;19141;48.980;8.410;2023-05-22T05:01:41;99852.47;;;14.39;100.00
32789;BME280;19141;48.980;8.410;2023-05-22T05:04:12;99857.66;;;14.48;100.00
32789;BME280;19141;48.980;8.410;2023-05-22T05:06:38;99862.38;;;14.52;100.00
32789;BME280;19141;48.980;8.410;2023-05-22T05:09:04;99863.19;;;14.59;100.00
32789;BME280;19141;48.980;8.410;2023-05-22T05:11:29;99860.09;;;14.69;100.00
32789;BME280;19141;48.980;8.410;2023-05-22T05:13:54;99861.50;;;14.78;100.00
32789;BME280;19141;48.980;8.410;2023-05-22T05:16:21;99856.75;;;14.87;100.00
32789;BME280;19141;48.980;8.410;2023-05-22T05:18:47;99858.38;;;14.95;100.00
32789;BME280;19141;48.980;8.410;2023-05-22T05:21:13;99858.16;;;15.03;100.00
32789;BME280;19141;48.980;8.410;2023-05-22T05:23:38;99862.88;;;15.07;100.00
32789;BME280;19141;48.980;8.410;2023-05-22T05:26:04;99860.38;;;15.12;100.00
32789;BME280;19141;48.980;8.410;2023-05-22T05:28:29;99865.53;;;15.20;100.00
32789;BME280;19141;48.980;8.410;2023-05-22T05:30:55;99872.69;;;15.33;100.00
32789;BME280;19141;48.980;8.410;2023-05-22T05:33:48;99866.63;;;15.44;100.00
32789;BME280;19141;48.980;8.410;2023-05-22T05:36:26;99862.47;;;15.55;100.00
32789;BME280;19141;48.980;8.410;2023-05-22T05:38:52;99868.59;;;15.69;100.00
32789;BME280;19141;48.980;8.410;2023-05-22T05:41:19;99869.78;;;15.80;100.00
32789;BME280;19141;48.980;8.410;2023-05-22T05:43:50;99863.94;;;15.89;100.00
32789;BME280;19141;48.980;8.410;2023-05-22T05:46:17;99866.31;;;16.04;100.00
32789;BME280;19141;48.980;8.410;2023-05-22T05:48:43;99866.06;;;16.12;100.00
32789;BME280;19141;48.980;8.410;2023-05-22T05:51:09;99867.19;;;16.23;100.00
32789;BME280;19141;48.980;8.410;2023-05-22T05:53:38;99870.22;;;16.33;100.00
32789;BME280;19141;48.980;8.410;2023-05-22T05:56:06;99872.63;;;16.41;100.00
32789;BME280;19141;48.980;8.410;2023-05-22T05:58:33;99877.50;;;16.51;100.00
32789;BME280;19141;48.980;8.410;2023-05-22T06:01:18;99877.16;;;16.66;100.00
32789;BME280;19141;48.980;8.410;2023-05-22T06:03:44;99876.47;;;16.77;100.00
32789;BME280;19141;48.980;8.410;2023-05-22T06:06:13;99879.44;;;16.87;100.00
32789;BME280;19141;48.980;8.410;2023-05-22T06:09:17;99872.75;;;16.96;100.00
32789;BME280;19141;48.980;8.410;2023-05-22T06:12:21;99891.78;;;17.13;100.00
32789;BME280;19141;48.980;8.410;2023-05-22T06:14:47;99886.47;;;17.25;100.00
32789;BME280;19141;48.980;8.410;2023-05-22T06:17:13;99890.72;;;17.32;100.00
32789;BME280;19141;48.980;8.410;2023-05-22T06:19:41;99893.34;;;17.39;100.00
32789;BME280;19141;48.980;8.410;2023-05-22T06:22:06;99890.47;;;17.52;100.00
32789;BME280;19141;48.980;8.410;2023-05-22T06:24:33;99888.91;;;17.63;100.00
32789;BME280;19141;48.980;8.410;2023-05-22T06:27:04;99897.19;;;17.80;100.00
32789;BME280;19141;48.980;8.410;2023-05-22T06:29:30;99894.31;;;17.93;100.00
32789;BME280;19141;48.980;8.410;2023-05-22T06:31:55;99898.09;;;18.04;100.00
32789;BME280;19141;48.980;8.410;2023-05-22T06:34:21;99891.81;;;18.22;100.00
32789;BME280;19141;48.980;8.410;2023-05-22T06:36:47;99894.75;;;18.32;100.00
32789;BME280;19141;48.980;8.410;2023-05-22T06:39:19;99893.59;;;18.39;100.00
32789;BME280;19141;48.980;8.410;2023-05-22T06:42:08;99893.25;;;18.48;100.00
32789;BME280;19141;48.980;8.410;2023-05-22T06:44:51;99887.16;;;18.52;97.80
32789;BME280;19141;48.980;8.410;2023-05-22T06:47:18;99893.25;;;18.59;97.74
32789;BME280;19141;48.980;8.410;2023-05-22T06:49:44;99891.72;;;18.63;98.26
32789;BME280;19141;48.980;8.410;2023-05-22T06:52:10;99895.75;;;18.73;97.70
32789;BME280;19141;48.980;8.410;2023-05-22T06:54:36;99892.13;;;18.79;97.83
32789;BME280;19141;48.980;8.410;2023-05-22T06:57:03;99892.09;;;18.90;97.89
32789;BME280;19141;48.980;8.410;2023-05-22T06:59:30;99901.13;;;19.08;95.08
32789;BME280;19141;48.980;8.410;2023-05-22T07:02:04;99895.97;;;19.06;94.71
32789;BME280;19141;48.980;8.410;2023-05-22T07:04:50;99907.31;;;19.20;94.94
32789;BME280;19141;48.980;8.410;2023-05-22T07:07:22;99903.41;;;19.28;93.53
32789;BME280;19141;48.980;8.410;2023-05-22T07:09:47;99901.91;;;19.32;92.15
32789;BME280;19141;48.980;8.410;2023-05-22T07:12:13;99901.50;;;19.40;93.92
32789;BME280;19141;48.980;8.410;2023-05-22T07:14:38;99908.28;;;19.54;92.93
32789;BME280;19141;48.980;8.410;2023-05-22T07:17:04;99908.03;;;19.67;92.06
32789;BME280;19141;48.980;8.410;2023-05-22T07:19:35;99903.78;;;19.71;91.68
32789;BME280;19141;48.980;8.410;2023-05-22T07:22:02;99906.97;;;19.68;90.45
32789;BME280;19141;48.980;8.410;2023-05-22T07:24:29;99911.31;;;19.69;91.66
32789;BME280;19141;48.980;8.410;2023-05-22T07:26:55;99920.31;;;19.75;90.31
32789;BME280;19141;48.980;8.410;2023-05-22T07:29:20;99916.72;;;19.69;89.63
32789;BME280;19141;48.980;8.410;2023-05-22T07:31:49;99918.38;;;19.70;90.01
32789;BME280;19141;48.980;8.410;2023-05-22T07:34:15;99918.69;;;19.74;89.16
32789;BME280;19141;48.980;8.410;2023-05-22T07:36:41;99923.53;;;19.72;89.83
32789;BME280;19141;48.980;8.410;2023-05-22T07:39:07;99927.16;;;19.77;88.23
32789;BME280;19141;48.980;8.410;2023-05-22T07:41:37;99924.97;;;19.91;87.42
32789;BME280;19141;48.980;8.410;2023-05-22T07:44:04;99923.34;;;20.07;87.87
32789;BME280;19141;48.980;8.410;2023-05-22T07:46:34;99919.63;;;20.25;86.53
32789;BME280;19141;48.980;8.410;2023-05-22T07:49:10;99924.72;;;20.38;86.58
32789;BME280;19141;48.980;8.410;2023-05-22T07:51:38;99922.78;;;20.67;85.52
32789;BME280;19141;48.980;8.410;2023-05-22T07:54:05;99919.31;;;20.89;85.52
32789;BME280;19141;48.980;8.410;2023-05-22T07:56:32;99912.72;;;21.01;84.08
32789;BME280;19141;48.980;8.410;2023-05-22T07:58:58;99921.22;;;21.10;83.33
32789;BME280;19141;48.980;8.410;2023-05-22T08:01:25;99916.44;;;21.17;83.65
32789;BME280;19141;48.980;8.410;2023-05-22T08:03:50;99917.66;;;21.26;83.25
32789;BME280;19141;48.980;8.410;2023-05-22T08:06:16;99926.13;;;21.30;81.58
32789;BME280;19141;48.980;8.410;2023-05-22T08:08:42;99921.13;;;21.22;81.52
32789;BME280;19141;48.980;8.410;2023-05-22T08:11:07;99925.03;;;21.31;80.66
32789;BME280;19141;48.980;8.410;2023-05-22T08:13:32;99923.28;;;21.42;81.65
32789;BME280;19141;48.980;8.410;2023-05-22T08:15:58;99922.59;;;21.51;79.26
32789;BME280;19141;48.980;8.410;2023-05-22T08:18:23;99927.13;;;21.67;79.87
32789;BME280;19141;48.980;8.410;2023-05-22T08:20:52;99921.63;;;21.84;79.84
32789;BME280;19141;48.980;8.410;2023-05-22T08:23:18;99927.25;;;22.05;78.09
32789;BME280;19141;48.980;8.410;2023-05-22T08:25:43;99924.50;;;22.27;78.55
32789;BME280;19141;48.980;8.410;2023-05-22T08:28:08;99921.72;;;22.54;76.83
32789;BME280;19141;48.980;8.410;2023-05-22T08:30:34;99917.84;;;22.82;72.01
32789;BME280;19141;48.980;8.410;2023-05-22T08:33:01;99916.53;;;22.84;69.03
32789;BME280;19141;48.980;8.410;2023-05-22T08:35:27;99919.25;;;22.84;69.89
32789;BME280;19141;48.980;8.410;2023-05-22T08:37:52;99907.38;;;22.90;73.44
32789;BME280;19141;48.980;8.410;2023-05-22T08:40:19;99916.13;;;23.02;71.05
32789;BME280;19141;48.980;8.410;2023-05-22T08:42:44;99919.13;;;23.06;71.89
32789;BME280;19141;48.980;8.410;2023-05-22T08:45:10;99915.84;;;22.99;69.64
32789;BME280;19141;48.980;8.410;2023-05-22T08:47:36;99916.25;;;22.86;71.54
32789;BME280;19141;48.980;8.410;2023-05-22T08:50:02;99919.41;;;23.05;72.84
32789;BME280;19141;48.980;8.410;2023-05-22T08:52:41;99916.22;;;23.18;71.29
32789;BME280;19141;48.980;8.410;2023-05-22T08:55:12;99916.28;;;23.28;70.38
32789;BME280;19141;48.980;8.410;2023-05-22T08:57:37;99921.22;;;23.41;71.99
32789;BME280;19141;48.980;8.410;2023-05-22T09:00:03;99917.47;;;23.58;70.20
32789;BME280;19141;48.980;8.410;2023-05-22T09:02:30;99912.63;;;23.65;66.36
32789;BME280;19141;48.980;8.410;2023-05-22T09:04:55;99919.19;;;23.74;65.96
32789;BME280;19141;48.980;8.410;2023-05-22T09:07:21;99917.53;;;23.78;66.27
32789;BME280;19141;48.980;8.410;2023-05-22T09:09:48;99917.53;;;23.78;67.04
32789;BME280;19141;48.980;8.410;2023-05-22T09:12:15;99921.88;;;23.69;66.84
32789;BME280;19141;48.980;8.410;2023-05-22T09:14:41;99919.97;;;23.64;67.98
32789;BME280;19141;48.980;8.410;2023-05-22T09:17:08;99917.53;;;23.78;69.82
32789;BME280;19141;48.980;8.410;2023-05-22T09:19:36;99924.66;;;23.94;68.53
32789;BME280;19141;48.980;8.410;2023-05-22T09:22:02;99922.47;;;23.81;66.80
32789;BME280;19141;48.980;8.410;2023-05-22T09:24:28;99918.69;;;24.02;68.31
32789;BME280;19141;48.980;8.410;2023-05-22T09:26:54;99921.16;;;24.29;67.40
32789;BME280;19141;48.980;8.410;2023-05-22T09:29:20;99913.28;;;24.38;66.27
32789;BME280;19141;48.980;8.410;2023-05-22T09:31:46;99917.06;;;24.12;65.91
32789;BME280;19141;48.980;8.410;2023-05-22T09:34:14;99919.78;;;24.17;65.24
32789;BME280;19141;48.980;8.410;2023-05-22T09:36:40;99917.63;;;24.24;66.26
32789;BME280;19141;48.980;8.410;2023-05-22T09:39:06;99911.63;;;24.32;65.54
32789;BME280;19141;48.980;8.410;2023-05-22T09:41:39;99911.91;;;24.30;64.43
32789;BME280;19141;48.980;8.410;2023-05-22T09:44:14;99911.97;;;24.46;64.03
32789;BME280;19141;48.980;8.410;2023-05-22T09:46:41;99907.31;;;24.56;63.49
32789;BME280;19141;48.980;8.410;2023-05-22T09:49:08;99909.19;;;24.81;64.14
32789;BME280;19141;48.980;8.410;2023-05-22T09:51:34;99910.50;;;25.14;61.56
32789;BME280;19141;48.980;8.410;2023-05-22T09:54:02;99911.19;;;25.51;60.32
32789;BME280;19141;48.980;8.410;2023-05-22T09:56:30;99910.31;;;25.60;64.23
32789;BME280;19141;48.980;8.410;2023-05-22T09:58:56;99909.50;;;25.55;63.00
32789;BME280;19141;48.980;8.410;2023-05-22T10:01:24;99910.06;;;25.57;60.13
32789;BME280;19141;48.980;8.410;2023-05-22T10:03:51;99900.19;;;25.66;59.50
32789;BME280;19141;48.980;8.410;2023-05-22T10:06:19;99898.59;;;25.60;62.19
32789;BME280;19141;48.980;8.410;2023-05-22T10:08:49;99899.19;;;25.47;60.66
32789;BME280;19141;48.980;8.410;2023-05-22T10:11:17;99898.94;;;25.43;60.27
32789;BME280;19141;48.980;8.410;2023-05-22T10:13:43;99895.75;;;25.21;60.96
32789;BME280;19141;48.980;8.410;2023-05-22T10:16:14;99899.00;;;25.28;58.20
32789;BME280;19141;48.980;8.410;2023-05-22T10:18:41;99905.03;;;25.14;60.86
32789;BME280;19141;48.980;8.410;2023-05-22T10:21:10;99899.00;;;25.28;60.37
32789;BME280;19141;48.980;8.410;2023-05-22T10:23:37;99897.13;;;25.18;60.59
32789;BME280;19141;48.980;8.410;2023-05-22T10:26:03;99890.38;;;25.05;61.12
32789;BME280;19141;48.980;8.410;2023-05-22T10:28:36;99893.03;;;25.15;59.15
32789;BME280;19141;48.980;8.410;2023-05-22T10:31:10;99894.38;;;25.23;58.74
32789;BME280;19141;48.980;8.410;2023-05-22T10:34:01;99887.78;;;25.39;57.99
32789;BME280;19141;48.980;8.410;2023-05-22T10:36:53;99876.75;;;25.60;57.39
32789;BME280;19141;48.980;8.410;2023-05-22T10:39:51;99875.88;;;26.14;59.18
32789;BME280;19141;48.980;8.410;2023-05-22T10:42:18;99861.34;;;26.58;54.54
32789;BME280;19141;48.980;8.410;2023-05-22T10:44:46;99864.25;;;27.19;53.76
32789;BME280;19141;48.980;8.410;2023-05-22T10:47:13;99862.28;;;27.63;50.18
32789;BME280;19141;48.980;8.410;2023-05-22T10:49:44;99862.81;;;27.83;49.14
32789;BME280;19141;48.980;8.410;2023-05-22T10:52:11;99861.53;;;28.13;48.39
32789;BME280;19141;48.980;8.410;2023-05-22T10:54:44;99861.59;;;28.27;48.85
32789;BME280;19141;48.980;8.410;2023-05-22T10:57:13;99851.44;;;28.74;48.83
32789;BME280;19141;48.980;8.410;2023-05-22T10:59:40;99854.63;;;28.95;46.80
32789;BME280;19141;48.980;8.410;2023-05-22T11:02:18;99847.97;;;28.55;45.84
32789;BME280;19141;48.980;8.410;2023-05-22T11:04:44;99843.66;;;29.36;44.88
32789;BME280;19141;48.980;8.410;2023-05-22T11:07:09;99847.47;;;29.49;46.32
32789;BME280;19141;48.980;8.410;2023-05-22T11:09:40;99843.47;;;30.27;45.47
32789;BME280;19141;48.980;8.410;2023-05-22T11:12:18;99838.78;;;30.59;44.23
32789;BME280;19141;48.980;8.410;2023-05-22T11:15:00;99831.97;;;30.57;42.05
32789;BME280;19141;48.980;8.410;2023-05-22T11:17:28;99829.97;;;30.71;42.42
32789;BME280;19141;48.980;8.410;2023-05-22T11:19:56;99825.66;;;30.56;41.55
32789;BME280;19141;48.980;8.410;2023-05-22T11:22:32;99806.97;;;30.67;43.67
32789;BME280;19141;48.980;8.410;2023-05-22T11:24:58;99816.50;;;31.00;44.78
32789;BME280;19141;48.980;8.410;2023-05-22T11:27:24;99820.22;;;31.04;42.52
32789;BME280;19141;48.980;8.410;2023-05-22T11:29:49;99820.84;;;31.01;39.64
32789;BME280;19141;48.980;8.410;2023-05-22T11:32:16;99820.38;;;31.08;43.57
32789;BME280;19141;48.980;8.410;2023-05-22T11:34:45;99815.47;;;31.62;40.52
32789;BME280;19141;48.980;8.410;2023-05-22T11:37:11;99815.56;;;31.22;40.27
32789;BME280;19141;48.980;8.410;2023-05-22T11:39:37;99809.81;;;31.58;41.35
32789;BME280;19141;48.980;8.410;2023-05-22T11:42:03;99806.53;;;32.34;39.86
32789;BME280;19141;48.980;8.410;2023-05-22T11:44:29;99802.41;;;32.49;39.41
32789;BME280;19141;48.980;8.410;2023-05-22T11:46:54;99801.41;;;32.54;39.33
32789;BME280;19141;48.980;8.410;2023-05-22T11:49:22;99809.38;;;32.47;39.79
32789;BME280;19141;48.980;8.410;2023-05-22T11:51:48;99798.59;;;32.71;36.76
32789;BME280;19141;48.980;8.410;2023-05-22T11:54:17;99797.44;;;32.72;37.68
32789;BME280;19141;48.980;8.410;2023-05-22T11:56:43;99796.53;;;32.59;36.40
32789;BME280;19141;48.980;8.410;2023-05-22T11:59:09;99790.66;;;32.05;37.03
32789;BME280;19141;48.980;8.410;2023-05-22T12:01:34;99799.56;;;32.66;37.90
32789;BME280;19141;48.980;8.410;2023-05-22T12:04:01;99789.59;;;33.42;35.68
32789;BME280;19141;48.980;8.410;2023-05-22T12:06:26;99799.25;;;33.90;34.89
32789;BME280;19141;48.980;8.410;2023-05-22T12:08:52;99804.06;;;34.14;34.89
32789;BME280;19141;48.980;8.410;2023-05-22T12:11:18;99790.69;;;34.04;32.89
32789;BME280;19141;48.980;8.410;2023-05-22T12:13:43;99797.94;;;34.08;35.11
32789;BME280;19141;48.980;8.410;2023-05-22T12:16:19;99796.66;;;33.72;35.75
32789;BME280;19141;48.980;8.410;2023-05-22T12:18:52;99792.19;;;33.38;35.98
32789;BME280;19141;48.980;8.410;2023-05-22T12:21:19;99799.44;;;33.01;36.49
32789;BME280;19141;48.980;8.410;2023-05-22T12:23:49;99791.00;;;33.48;33.81
32789;BME280;19141;48.980;8.410;2023-05-22T12:26:15;99800.81;;;33.58;36.01
32789;BME280;19141;48.980;8.410;2023-05-22T12:28:41;99796.72;;;33.43;35.89
32789;BME280;19141;48.980;8.410;2023-05-22T12:31:06;99806.59;;;34.07;34.87
32789;BME280;19141;48.980;8.410;2023-05-22T12:33:31;99802.53;;;34.37;35.42
32789;BME280;19141;48.980;8.410;2023-05-22T12:35:57;99796.50;;;34.93;32.36
32789;BME280;19141;48.980;8.410;2023-05-22T12:38:28;99793.03;;;34.96;31.54
32789;BME280;19141;48.980;8.410;2023-05-22T12:40:54;99779.31;;;34.99;31.28
32789;BME280;19141;48.980;8.410;2023-05-22T12:43:21;99783.22;;;34.98;31.68
32789;BME280;19141;48.980;8.410;2023-05-22T12:45:47;99780.63;;;35.42;30.28
32789;BME280;19141;48.980;8.410;2023-05-22T12:48:13;99786.56;;;35.04;31.75
32789;BME280;19141;48.980;8.410;2023-05-22T12:50:38;99780.06;;;34.39;32.73
32789;BME280;19141;48.980;8.410;2023-05-22T12:53:05;99772.28;;;34.08;34.17
32789;BME280;19141;48.980;8.410;2023-05-22T12:55:31;99772.78;;;34.22;31.60
32789;BME280;19141;48.980;8.410;2023-05-22T12:57:56;99769.38;;;33.92;31.16
32789;BME280;19141;48.980;8.410;2023-05-22T13:00:22;99771.34;;;34.86;30.65
32789;BME280;19141;48.980;8.410;2023-05-22T13:02:47;99766.09;;;34.35;29.93
32789;BME280;19141;48.980;8.410;2023-05-22T13:05:13;99758.81;;;34.06;31.27
32789;BME280;19141;48.980;8.410;2023-05-22T13:07:38;99760.72;;;32.51;32.62
32789;BME280;19141;48.980;8.410;2023-05-22T13:10:04;99757.50;;;32.78;31.98
32789;BME280;19141;48.980;8.410;2023-05-22T13:12:30;99757.63;;;32.05;32.80
32789;BME280;19141;48.980;8.410;2023-05-22T13:14:59;99743.13;;;32.26;33.20
32789;BME280;19141;48.980;8.410;2023-05-22T13:17:25;99751.38;;;31.44;32.69
32789;BME280;19141;48.980;8.410;2023-05-22T13:19:52;99735.03;;;32.21;33.97
32789;BME280;19141;48.980;8.410;2023-05-22T13:22:18;99739.53;;;32.43;34.44
32789;BME280;19141;48.980;8.410;2023-05-22T13:24:43;99733.41;;;32.37;34.74
32789;BME280;19141;48.980;8.410;2023-05-22T13:27:09;99735.13;;;32.03;34.41
32789;BME280;19141;48.980;8.410;2023-05-22T13:29:34;99732.56;;;31.90;33.53
32789;BME280;19141;48.980;8.410;2023-05-22T13:32:00;99727.69;;;31.78;36.11
32789;BME280;19141;48.980;8.410;2023-05-22T13:34:27;99728.53;;;31.18;33.99
32789;BME280;19141;48.980;8.410;2023-05-22T13:36:52;99725.09;;;30.95;34.16
32789;BME280;19141;48.980;8.410;2023-05-22T13:39:18;99728.66;;;30.47;34.05
32789;BME280;19141;48.980;8.410;2023-05-22T13:41:44;99718.13;;;30.80;34.25
32789;BME280;19141;48.980;8.410;2023-05-22T13:44:09;99716.50;;;30.88;33.31
32789;BME280;19141;48.980;8.410;2023-05-22T13:46:35;99714.09;;;31.03;33.60
32789;BME280;19141;48.980;8.410;2023-05-22T13:49:00;99710.38;;;30.99;36.55
32789;BME280;19141;48.980;8.410;2023-05-22T13:51:25;99713.28;;;30.94;36.00
32789;BME280;19141;48.980;8.410;2023-05-22T13:53:51;99716.09;;;30.63;36.04
32789;BME280;19141;48.980;8.410;2023-05-22T13:56:16;99721.22;;;30.39;34.92
32789;BME280;19141;48.980;8.410;2023-05-22T13:58:42;99709.31;;;30.61;34.55
32789;BME280;19141;48.980;8.410;2023-05-22T14:01:08;99708.22;;;30.70;33.84
32789;BME280;19141;48.980;8.410;2023-05-22T14:03:33;99707.50;;;30.56;33.46
32789;BME280;19141;48.980;8.410;2023-05-22T14:05:59;99704.53;;;30.35;35.24
32789;BME280;19141;48.980;8.410;2023-05-22T14:08:24;99717.25;;;30.22;36.04
32789;BME280;19141;48.980;8.410;2023-05-22T14:10:49;99705.47;;;30.22;37.33
32789;BME280;19141;48.980;8.410;2023-05-22T14:13:15;99704.16;;;30.19;37.92
32789;BME280;19141;48.980;8.410;2023-05-22T14:15:41;99711.56;;;30.19;36.54
32789;BME280;19141;48.980;8.410;2023-05-22T14:18:07;99706.84;;;30.11;36.85
32789;BME280;19141;48.980;8.410;2023-05-22T14:20:32;99703.03;;;29.98;38.86
32789;BME280;19141;48.980;8.410;2023-05-22T14:22:58;99705.56;;;29.86;37.42
32789;BME280;19141;48.980;8.410;2023-05-22T14:25:24;99711.69;;;29.83;36.07
32789;BME280;19141;48.980;8.410;2023-05-22T14:27:50;99718.31;;;29.59;35.31
32789;BME280;19141;48.980;8.410;2023-05-22T14:30:15;99711.44;;;29.48;35.85
32789;BME280;19141;48.980;8.410;2023-05-22T14:32:41;99718.41;;;29.32;36.42
32789;BME280;19141;48.980;8.410;2023-05-22T14:35:07;99717.03;;;29.43;36.97
32789;BME280;19141;48.980;8.410;2023-05-22T14:37:32;99710.44;;;29.44;38.38
32789;BME280;19141;48.980;8.410;2023-05-22T14:39:58;99714.31;;;29.43;38.74
32789;BME280;19141;48.980;8.410;2023-05-22T14:42:23;99714.78;;;29.45;39.29
32789;BME280;19141;48.980;8.410;2023-05-22T14:44:49;99719.25;;;29.55;37.37
32789;BME280;19141;48.980;8.410;2023-05-22T14:47:14;99716.03;;;29.39;36.53
32789;BME280;19141;48.980;8.410;2023-05-22T14:49:39;99715.34;;;29.33;36.53
32789;BME280;19141;48.980;8.410;2023-05-22T14:52:05;99698.34;;;29.23;36.60
32789;BME280;19141;48.980;8.410;2023-05-22T14:54:30;99710.09;;;29.45;36.54
32789;BME280;19141;48.980;8.410;2023-05-22T14:56:56;99705.94;;;29.26;38.30
32789;BME280;19141;48.980;8.410;2023-05-22T14:59:21;99715.31;;;29.11;36.13
32789;BME280;19141;48.980;8.410;2023-05-22T15:01:46;99718.38;;;29.09;36.95
32789;BME280;19141;48.980;8.410;2023-05-22T15:04:17;99715.31;;;29.11;37.92
32789;BME280;19141;48.980;8.410;2023-05-22T15:06:43;99705.97;;;29.12;36.94
32789;BME280;19141;48.980;8.410;2023-05-22T15:09:09;99701.50;;;29.16;36.64
32789;BME280;19141;48.980;8.410;2023-05-22T15:11:34;99701.06;;;29.23;36.73
32789;BME280;19141;48.980;8.410;2023-05-22T15:14:00;99695.25;;;29.02;35.85
32789;BME280;19141;48.980;8.410;2023-05-22T15:16:25;99689.78;;;29.02;37.18
32789;BME280;19141;48.980;8.410;2023-05-22T15:18:51;99696.97;;;28.98;37.24
32789;BME280;19141;48.980;8.410;2023-05-22T15:21:17;99699.41;;;28.99;37.55
32789;BME280;19141;48.980;8.410;2023-05-22T15:23:42;99705.59;;;29.05;38.34
32789;BME280;19141;48.980;8.410;2023-05-22T15:26:08;99700.84;;;28.97;37.39
32789;BME280;19141;48.980;8.410;2023-05-22T15:28:33;99694.63;;;28.91;37.36
32789;BME280;19141;48.980;8.410;2023-05-22T15:30:58;99705.81;;;28.81;37.91
32789;BME280;19141;48.980;8.410;2023-05-22T15:33:24;99709.59;;;28.71;37.63
32789;BME280;19141;48.980;8.410;2023-05-22T15:35:49;99709.47;;;28.62;38.34
32789;BME280;19141;48.980;8.410;2023-05-22T15:38:16;99718.72;;;28.53;38.98
32789;BME280;19141;48.980;8.410;2023-05-22T15:40:42;99716.63;;;28.50;39.55
32789;BME280;19141;48.980;8.410;2023-05-22T15:43:08;99724.22;;;28.39;38.41
32789;BME280;19141;48.980;8.410;2023-05-22T15:45:36;99714.78;;;28.31;38.44
32789;BME280;19141;48.980;8.410;2023-05-22T15:48:05;99712.16;;;27.94;40.42
32789;BME280;19141;48.980;8.410;2023-05-22T15:50:32;99715.72;;;27.94;41.69
32789;BME280;19141;48.980;8.410;2023-05-22T15:52:58;99722.38;;;27.88;42.89
32789;BME280;19141;48.980;8.410;2023-05-22T15:55:23;99720.81;;;27.68;43.71
32789;BME280;19141;48.980;8.410;2023-05-22T15:57:49;99723.63;;;27.44;44.42
32789;BME280;19141;48.980;8.410;2023-05-22T16:00:15;99747.03;;;27.31;43.95
32789;BME280;19141;48.980;8.410;2023-05-22T16:02:44;99753.13;;;27.28;45.77
32789;BME280;19141;48.980;8.410;2023-05-22T16:05:09;99750.47;;;26.99;46.65
32789;BME280;19141;48.980;8.410;2023-05-22T16:07:35;99748.84;;;26.98;46.22
32789;BME280;19141;48.980;8.410;2023-05-22T16:10:00;99754.75;;;26.87;47.08
32789;BME280;19141;48.980;8.410;2023-05-22T16:12:25;99755.22;;;26.70;48.28
32789;BME280;19141;48.980;8.410;2023-05-22T16:14:51;99762.22;;;26.57;49.11
32789;BME280;19141;48.980;8.410;2023-05-22T16:17:16;99758.28;;;26.39;50.77
32789;BME280;19141;48.980;8.410;2023-05-22T16:19:42;99753.31;;;26.17;50.58
32789;BME280;19141;48.980;8.410;2023-05-22T16:22:07;99752.81;;;26.15;50.78
32789;BME280;19141;48.980;8.410;2023-05-22T16:24:33;99766.56;;;26.00;51.98
32789;BME280;19141;48.980;8.410;2023-05-22T16:26:58;99795.28;;;25.92;51.91
32789;BME280;19141;48.980;8.410;2023-05-22T16:29:24;99833.78;;;25.91;53.45
32789;BME280;19141;48.980;8.410;2023-05-22T16:31:50;99837.44;;;25.76;53.52
32789;BME280;19141;48.980;8.410;2023-05-22T16:34:16;99842.88;;;25.22;54.54
32789;BME280;19141;48.980;8.410;2023-05-22T16:36:42;99835.69;;;24.66;57.05
32789;BME280;19141;48.980;8.410;2023-05-22T16:39:08;99822.38;;;24.59;57.52
32789;BME280;19141;48.980;8.410;2023-05-22T16:41:33;99826.19;;;24.43;56.12
32789;BME280;19141;48.980;8.410;2023-05-22T16:43:59;99821.84;;;24.12;56.10
32789;BME280;19141;48.980;8.410;2023-05-22T16:46:24;99831.09;;;24.05;57.01
32789;BME280;19141;48.980;8.410;2023-05-22T16:48:51;99827.81;;;23.73;55.81
32789;BME280;19141;48.980;8.410;2023-05-22T16:51:17;99819.31;;;23.59;54.79
32789;BME280;19141;48.980;8.410;2023-05-22T16:53:42;99820.47;;;23.63;54.77
32789;BME280;19141;48.980;8.410;2023-05-22T16:56:07;99822.31;;;23.58;54.37
32789;BME280;19141;48.980;8.410;2023-05-22T16:58:33;99836.97;;;23.51;54.63
32789;BME280;19141;48.980;8.410;2023-05-22T17:00:58;99829.13;;;23.55;54.19
32789;BME280;19141;48.980;8.410;2023-05-22T17:03:24;99827.47;;;23.49;54.39
32789;BME280;19141;48.980;8.410;2023-05-22T17:05:49;99830.47;;;23.58;53.99
32789;BME280;19141;48.980;8.410;2023-05-22T17:08:15;99834.78;;;23.38;53.64
32789;BME280;19141;48.980;8.410;2023-05-22T17:10:41;99833.44;;;23.46;52.64
32789;BME280;19141;48.980;8.410;2023-05-22T17:13:07;99844.28;;;23.36;51.92
32789;BME280;19141;48.980;8.410;2023-05-22T17:15:32;99832.75;;;23.08;52.79
32789;BME280;19141;48.980;8.410;2023-05-22T17:17:58;99829.81;;;23.20;52.60
32789;BME280;19141;48.980;8.410;2023-05-22T17:20:23;99829.25;;;23.13;52.45